Terminal Aerodrome Forecast
Issued by NWS

Home | Current Version | Previous Version | Text Only | Print | Product List | Glossary On
Versions: 1 2 3 4 5 6 7 8 9 10 11 12 13 14 15 16 17 18 19 20 21 22
000
FTUS43 KAPX 011721
TAFTVC
TAF
KTVC 011721Z 0118/0218 07009KT P6SM VCSH OVC015
     FM012000 06008KT 5SM BR OVC015
     FM020000 05005KT 3SM BR VCSH OVC010
     FM020500 04004KT 2SM BR OVC003
     FM021000 02004KT 2SM BR OVC008
     FM021200 02004KT 1SM SHRA BR OVC003
     FM021600 36005KT P6SM BKN015=

USA.gov is the U.S. government's official web portal to all federal, state and local government web resources and services.